createdAt,value
2023-03-28T00:01:46.518Z,10.80
2023-03-28T00:04:13.888Z,10.80
2023-03-28T00:06:45.644Z,10.70
2023-03-28T00:09:12.990Z,10.70
2023-03-28T00:11:39.971Z,10.80
2023-03-28T00:14:08.407Z,10.80
2023-03-28T00:16:39.470Z,10.70
2023-03-28T00:19:09.021Z,10.60
2023-03-28T00:21:38.185Z,10.50
2023-03-28T00:24:07.409Z,10.30
2023-03-28T00:26:36.024Z,10.30
2023-03-28T00:29:06.079Z,10.20
2023-03-28T00:31:35.802Z,10.30
2023-03-28T00:34:03.159Z,10.20
2023-03-28T00:36:32.735Z,10.00
2023-03-28T00:39:01.718Z,9.90
2023-03-28T00:41:31.377Z,9.80
2023-03-28T00:44:01.861Z,9.70
2023-03-28T00:46:39.798Z,9.70
2023-03-28T00:49:22.670Z,9.60
2023-03-28T00:51:59.282Z,9.70
2023-03-28T00:54:35.026Z,9.60
2023-03-28T00:57:03.002Z,9.60
2023-03-28T00:59:33.249Z,9.50
2023-03-28T01:02:00.734Z,9.60
2023-03-28T01:04:37.564Z,9.60
2023-03-28T01:07:05.515Z,9.70
2023-03-28T01:09:36.414Z,9.60
2023-03-28T01:12:03.642Z,9.50
2023-03-28T01:14:30.918Z,9.10
2023-03-28T01:17:09.195Z,8.90
2023-03-28T01:19:59.968Z,8.60
2023-03-28T01:22:56.381Z,8.60
2023-03-28T01:25:43.107Z,8.30
2023-03-28T01:28:13.622Z,8.30
2023-03-28T01:31:06.972Z,8.30
2023-03-28T01:34:25.192Z,8.20
2023-03-28T01:37:11.216Z,8.30
2023-03-28T01:40:13.941Z,8.10
2023-03-28T01:43:03.458Z,8.00
2023-03-28T01:45:50.521Z,8.00
2023-03-28T01:48:26.752Z,8.10
2023-03-28T01:51:09.684Z,8.00
2023-03-28T01:53:54.991Z,8.00
2023-03-28T01:56:47.862Z,7.90
2023-03-28T01:59:25.058Z,7.90
2023-03-28T02:02:22.692Z,7.90
2023-03-28T02:05:00.549Z,7.60
2023-03-28T02:07:29.199Z,7.40
2023-03-28T02:10:11.850Z,7.60
2023-03-28T02:13:03.941Z,7.60
2023-03-28T02:16:11.374Z,7.70
2023-03-28T02:19:01.865Z,7.40
2023-03-28T02:22:27.102Z,7.50
2023-03-28T02:25:00.141Z,7.60
2023-03-28T02:27:53.053Z,7.50
2023-03-28T02:30:23.843Z,7.30
2023-03-28T02:32:51.657Z,7.10
2023-03-28T02:35:29.473Z,7.30
2023-03-28T02:38:09.336Z,7.50
2023-03-28T02:41:02.573Z,7.60
2023-03-28T02:43:54.296Z,7.60
2023-03-28T02:46:59.471Z,7.60
2023-03-28T02:49:53.168Z,7.40
2023-03-28T02:52:39.006Z,7.30
2023-03-28T02:55:16.753Z,7.10
2023-03-28T02:58:26.403Z,7.00
2023-03-28T03:00:54.460Z,7.10
2023-03-28T03:03:23.712Z,7.00
2023-03-28T03:05:50.843Z,7.00
2023-03-28T03:08:17.833Z,7.10
2023-03-28T03:10:44.912Z,7.00
2023-03-28T03:13:12.036Z,6.90
2023-03-28T03:15:41.367Z,6.80
2023-03-28T03:18:23.433Z,6.90
2023-03-28T03:20:55.218Z,6.90
2023-03-28T03:23:22.201Z,7.00
2023-03-28T03:25:50.807Z,7.00
2023-03-28T03:28:22.884Z,6.90
2023-03-28T03:30:52.827Z,6.70
2023-03-28T03:33:19.731Z,6.80
2023-03-28T03:35:50.176Z,6.70
2023-03-28T03:38:19.193Z,6.70
2023-03-28T03:40:47.707Z,6.70
2023-03-28T03:43:15.802Z,6.80
2023-03-28T03:45:46.016Z,6.70
2023-03-28T03:48:16.196Z,6.60
2023-03-28T03:50:43.200Z,6.50
2023-03-28T03:53:13.688Z,6.30
2023-03-28T03:56:01.358Z,6.20
2023-03-28T03:58:37.434Z,5.90
2023-03-28T04:01:14.128Z,5.80
2023-03-28T04:03:42.515Z,5.70
2023-03-28T04:06:15.788Z,5.90
2023-03-28T04:08:42.831Z,6.10
2023-03-28T04:11:10.666Z,6.20
2023-03-28T04:13:42.077Z,6.20
2023-03-28T04:16:09.920Z,6.20
2023-03-28T04:18:51.167Z,6.20
2023-03-28T04:21:36.028Z,6.30
2023-03-28T04:24:04.709Z,6.20
2023-03-28T04:26:56.203Z,6.20
2023-03-28T04:29:42.392Z,6.00
2023-03-28T04:32:36.185Z,5.80
2023-03-28T04:35:09.402Z,5.60
2023-03-28T04:37:37.877Z,5.70
2023-03-28T04:40:12.623Z,5.70
2023-03-28T04:42:48.605Z,6.00
2023-03-28T04:45:31.723Z,6.10
2023-03-28T04:48:07.480Z,5.90
2023-03-28T04:50:35.858Z,5.80
2023-03-28T04:53:03.413Z,5.90
2023-03-28T04:55:31.544Z,6.10
2023-03-28T04:58:00.328Z,6.10
2023-03-28T05:00:28.581Z,6.00
2023-03-28T05:03:05.211Z,5.90
2023-03-28T05:05:42.292Z,5.90
2023-03-28T05:08:17.500Z,5.80
2023-03-28T05:10:45.982Z,5.80
2023-03-28T05:13:14.272Z,5.70
2023-03-28T05:16:05.714Z,5.70
2023-03-28T05:19:11.120Z,5.70
2023-03-28T05:21:51.954Z,5.70
2023-03-28T05:24:18.944Z,5.80
2023-03-28T05:26:49.590Z,5.70
2023-03-28T05:29:26.634Z,5.70
2023-03-28T05:31:54.295Z,5.80
2023-03-28T05:34:29.548Z,5.80
2023-03-28T05:36:57.916Z,5.90
2023-03-28T05:39:28.962Z,6.00
2023-03-28T05:42:08.792Z,6.20
2023-03-28T05:44:38.315Z,6.20
2023-03-28T05:47:23.758Z,6.40
2023-03-28T05:49:52.078Z,6.40
2023-03-28T05:52:21.626Z,6.50
2023-03-28T05:54:50.306Z,6.60
2023-03-28T05:57:21.575Z,6.80
2023-03-28T05:59:49.647Z,7.00
2023-03-28T06:02:21.411Z,7.20
2023-03-28T06:04:55.674Z,7.30
2023-03-28T06:07:35.377Z,7.40
2023-03-28T06:10:11.891Z,7.50
2023-03-28T06:12:40.478Z,7.80
2023-03-28T06:15:08.403Z,7.90
2023-03-28T06:17:39.484Z,8.10
2023-03-28T06:20:10.100Z,8.20
2023-03-28T06:22:38.294Z,8.40
2023-03-28T06:25:08.718Z,8.50
2023-03-28T06:27:38.856Z,8.60
2023-03-28T06:30:09.814Z,8.70
2023-03-28T06:32:43.887Z,8.90
2023-03-28T06:35:14.328Z,9.00
2023-03-28T06:37:42.224Z,9.10
2023-03-28T06:43:36.731Z,9.40
2023-03-28T06:46:21.182Z,9.60
2023-03-28T06:48:48.494Z,9.70
2023-03-28T06:51:25.800Z,9.80
2023-03-28T06:53:54.601Z,10.00
2023-03-28T06:56:25.609Z,9.80
2023-03-28T06:58:53.199Z,9.90
2023-03-28T07:01:27.737Z,10.10
2023-03-28T07:04:07.238Z,10.30
2023-03-28T07:06:39.212Z,10.40
2023-03-28T07:09:06.895Z,10.60
2023-03-28T07:11:41.837Z,10.70
2023-03-28T07:14:50.103Z,10.90
2023-03-28T07:17:24.951Z,11.00
2023-03-28T07:19:55.386Z,11.10
2023-03-28T07:22:23.455Z,11.30
2023-03-28T07:24:54.972Z,11.30
2023-03-28T07:27:24.496Z,11.40
2023-03-28T07:29:52.537Z,11.50
2023-03-28T07:32:19.884Z,11.60
2023-03-28T07:34:48.353Z,11.60
2023-03-28T07:37:21.884Z,11.60
2023-03-28T07:40:08.860Z,11.70
2023-03-28T07:42:36.166Z,11.70
2023-03-28T07:45:03.484Z,11.90
2023-03-28T07:47:33.631Z,11.90
2023-03-28T07:50:04.819Z,12.00
2023-03-28T07:52:35.670Z,12.00
2023-03-28T07:55:04.505Z,12.10
2023-03-28T07:57:38.118Z,12.20
2023-03-28T08:00:23.609Z,12.30
2023-03-28T08:03:14.314Z,12.20
2023-03-28T08:05:42.264Z,12.20
2023-03-28T08:08:10.251Z,12.20
2023-03-28T08:10:37.839Z,12.10
2023-03-28T08:13:05.066Z,12.20
2023-03-28T08:15:32.242Z,12.30
2023-03-28T08:18:01.916Z,12.30
2023-03-28T08:20:33.882Z,12.30
2023-03-28T08:23:10.381Z,12.40
2023-03-28T08:26:06.370Z,12.30
2023-03-28T08:28:36.605Z,12.50
2023-03-28T08:31:10.897Z,12.70
2023-03-28T08:33:38.205Z,12.80
2023-03-28T08:36:08.101Z,12.80
2023-03-28T08:38:46.920Z,12.90
2023-03-28T08:45:17.917Z,13.00
2023-03-28T08:48:20.258Z,13.20
2023-03-28T08:51:42.268Z,13.30
2023-03-28T08:54:35.502Z,13.40
2023-03-28T08:57:06.499Z,13.50
2023-03-28T09:00:13.627Z,13.60
2023-03-28T09:02:54.833Z,13.90
2023-03-28T09:05:43.984Z,13.90
2023-03-28T09:08:19.894Z,13.80
2023-03-28T09:11:00.015Z,13.70
2023-03-28T09:13:53.209Z,13.60
2023-03-28T09:16:48.476Z,13.50
2023-03-28T09:19:48.326Z,13.50
2023-03-28T09:23:00.765Z,13.70
2023-03-28T09:25:52.505Z,14.00
2023-03-28T09:28:33.690Z,14.20
2023-03-28T09:31:02.095Z,14.20
2023-03-28T09:33:43.408Z,14.20
2023-03-28T09:36:19.486Z,14.50
2023-03-28T09:39:13.996Z,14.70
2023-03-28T09:41:55.258Z,14.70
2023-03-28T09:44:54.763Z,14.70
2023-03-28T09:47:43.089Z,14.80
2023-03-28T09:50:18.947Z,14.80
2023-03-28T09:52:51.457Z,14.80
2023-03-28T09:55:26.205Z,14.90
2023-03-28T09:58:15.189Z,15.20
2023-03-28T10:01:01.182Z,15.20
2023-03-28T10:04:00.519Z,15.10
2023-03-28T10:06:49.226Z,15.20
2023-03-28T10:09:25.835Z,15.40
2023-03-28T10:12:09.869Z,15.60
2023-03-28T10:14:39.342Z,15.80
2023-03-28T10:17:40.022Z,15.80
2023-03-28T10:20:34.856Z,15.90
2023-03-28T10:23:09.285Z,15.70
2023-03-28T10:25:55.823Z,15.80
2023-03-28T10:28:37.098Z,15.90
2023-03-28T10:31:05.992Z,16.00
2023-03-28T10:33:44.775Z,15.90
2023-03-28T10:36:37.649Z,15.80
2023-03-28T10:39:23.672Z,15.60
2023-03-28T10:42:23.442Z,15.70
2023-03-28T10:45:01.366Z,15.80
2023-03-28T10:47:31.683Z,16.00
2023-03-28T10:50:04.035Z,16.20
2023-03-28T10:52:50.512Z,16.40
2023-03-28T10:55:36.438Z,16.30
2023-03-28T10:58:27.006Z,16.40
2023-03-28T11:01:00.880Z,16.20
2023-03-28T11:03:49.193Z,16.40
2023-03-28T11:06:48.235Z,16.50
2023-03-28T11:09:26.613Z,16.50
2023-03-28T11:12:54.894Z,16.40
2023-03-28T11:15:51.919Z,16.40
2023-03-28T11:19:00.874Z,16.30
2023-03-28T11:22:17.160Z,16.40
2023-03-28T11:25:31.511Z,16.60
2023-03-28T11:28:21.649Z,16.70
2023-03-28T11:31:00.368Z,16.60
2023-03-28T11:33:49.215Z,16.90
2023-03-28T11:36:51.278Z,16.80
2023-03-28T11:39:36.346Z,16.90
2023-03-28T11:42:27.776Z,17.10
2023-03-28T11:45:28.075Z,17.00
2023-03-28T11:48:18.737Z,17.10
2023-03-28T11:51:09.979Z,17.40
2023-03-28T11:54:03.882Z,17.40
2023-03-28T11:56:44.950Z,17.30
2023-03-28T11:59:43.088Z,17.40
2023-03-28T12:02:22.294Z,17.40
2023-03-28T12:05:23.655Z,17.40
2023-03-28T12:08:04.833Z,17.70
2023-03-28T12:10:36.455Z,17.60
2023-03-28T12:13:45.964Z,17.80
2023-03-28T12:16:25.953Z,17.80
2023-03-28T12:19:05.869Z,17.70
2023-03-28T12:21:59.335Z,17.80
2023-03-28T12:25:17.355Z,17.80
2023-03-28T12:28:22.800Z,17.90
2023-03-28T12:31:09.127Z,18.30
2023-03-28T12:34:01.345Z,18.30
2023-03-28T12:37:23.987Z,18.40
2023-03-28T12:40:04.280Z,18.40
2023-03-28T12:42:45.107Z,18.30
2023-03-28T12:45:30.949Z,18.10
2023-03-28T12:48:12.922Z,18.30
2023-03-28T12:51:04.551Z,18.40
2023-03-28T12:53:33.818Z,18.50
2023-03-28T12:56:03.654Z,18.70
2023-03-28T12:58:36.544Z,18.90
2023-03-28T13:01:39.765Z,18.90
2023-03-28T13:04:57.253Z,18.70
2023-03-28T13:08:03.970Z,18.60
2023-03-28T13:11:11.627Z,18.50
2023-03-28T13:13:48.915Z,18.80
2023-03-28T13:16:49.425Z,18.70
2023-03-28T13:19:24.771Z,18.50
2023-03-28T13:22:00.395Z,18.10
2023-03-28T13:24:38.159Z,18.00
2023-03-28T13:27:29.461Z,18.00
2023-03-28T13:30:27.355Z,18.10
2023-03-28T13:32:59.640Z,18.20
2023-03-28T13:35:49.076Z,18.10
2023-03-28T13:38:24.005Z,18.00
2023-03-28T13:41:01.058Z,18.00
2023-03-28T13:43:45.252Z,18.10
2023-03-28T13:46:22.270Z,18.60
2023-03-28T13:49:19.214Z,18.90
2023-03-28T13:51:49.359Z,18.90
2023-03-28T13:54:16.468Z,18.50
2023-03-28T13:56:46.818Z,18.20
2023-03-28T13:59:25.269Z,18.10
2023-03-28T14:02:00.712Z,18.00
2023-03-28T14:04:35.442Z,17.70
2023-03-28T14:07:02.986Z,17.50
2023-03-28T14:09:32.827Z,17.50
2023-03-28T14:12:06.456Z,18.00
2023-03-28T14:14:52.912Z,18.70
2023-03-28T14:17:32.744Z,19.20
2023-03-28T14:20:05.939Z,19.70
2023-03-28T14:22:43.190Z,20.10
2023-03-28T14:25:22.076Z,20.40
2023-03-28T14:27:50.572Z,20.60
2023-03-28T14:30:37.039Z,20.60
2023-03-28T14:33:14.092Z,20.70
2023-03-28T14:35:48.086Z,20.80
2023-03-28T14:38:27.999Z,20.50
2023-03-28T14:40:56.071Z,20.60
2023-03-28T14:44:34.112Z,20.80
2023-03-28T14:47:01.548Z,21.20
2023-03-28T14:49:29.023Z,21.40
2023-03-28T14:52:03.995Z,21.30
2023-03-28T14:54:39.593Z,21.40
2023-03-28T14:57:07.201Z,21.30
2023-03-28T14:59:42.344Z,21.10
2023-03-28T15:02:24.671Z,20.80
2023-03-28T15:04:55.419Z,20.90
2023-03-28T15:07:28.702Z,20.80
2023-03-28T15:10:20.999Z,20.70
2023-03-28T15:12:56.057Z,20.50
2023-03-28T15:15:28.201Z,20.40
2023-03-28T15:17:58.515Z,20.00
2023-03-28T15:20:32.599Z,19.70
2023-03-28T15:23:02.613Z,19.70
2023-03-28T15:25:55.736Z,19.90
2023-03-28T15:28:27.314Z,20.20
2023-03-28T15:30:58.148Z,20.70
2023-03-28T15:33:52.091Z,20.90
2023-03-28T15:36:25.197Z,21.10
2023-03-28T15:39:01.065Z,21.20
2023-03-28T15:41:42.671Z,21.40
2023-03-28T15:44:30.312Z,21.40
2023-03-28T15:47:11.248Z,21.90
2023-03-28T15:49:39.175Z,22.50
2023-03-28T15:52:15.706Z,22.50
2023-03-28T15:54:48.566Z,22.70
2023-03-28T15:57:17.130Z,23.10
2023-03-28T15:59:51.194Z,23.20
2023-03-28T16:02:24.485Z,22.80
2023-03-28T16:05:13.403Z,21.40
2023-03-28T16:07:46.453Z,19.90
2023-03-28T16:10:16.753Z,19.00
2023-03-28T16:13:03.913Z,18.50
2023-03-28T16:15:51.088Z,18.20
2023-03-28T16:18:30.531Z,17.90
2023-03-28T16:21:02.388Z,17.70
2023-03-28T16:23:29.407Z,17.50
2023-03-28T16:25:56.719Z,17.30
2023-03-28T16:28:23.969Z,17.10
2023-03-28T16:30:53.078Z,17.00
2023-03-28T16:33:20.462Z,17.00
2023-03-28T16:35:58.253Z,17.00
2023-03-28T16:38:40.341Z,16.80
2023-03-28T16:41:07.806Z,16.80
2023-03-28T16:43:35.170Z,16.70
2023-03-28T16:46:03.130Z,16.60
2023-03-28T16:48:32.430Z,16.50
2023-03-28T16:54:10.845Z,16.30
2023-03-28T16:56:38.872Z,16.20
2023-03-28T16:59:07.913Z,16.10
2023-03-28T17:01:35.141Z,16.00
2023-03-28T17:04:02.933Z,16.00
2023-03-28T17:06:30.075Z,16.00
2023-03-28T17:08:58.773Z,15.80
2023-03-28T17:11:27.142Z,15.80
2023-03-28T17:13:55.112Z,15.80
2023-03-28T17:16:23.313Z,15.70
2023-03-28T17:18:53.046Z,15.60
2023-03-28T17:21:20.516Z,15.50
2023-03-28T17:24:11.586Z,15.50
2023-03-28T17:27:04.523Z,15.40
2023-03-28T17:29:31.818Z,15.40
2023-03-28T17:32:09.367Z,15.30
2023-03-28T17:34:38.891Z,15.20
2023-03-28T17:37:07.716Z,15.10
2023-03-28T17:39:35.748Z,15.10
2023-03-28T17:42:03.208Z,15.00
2023-03-28T17:44:31.007Z,15.00
2023-03-28T17:46:59.208Z,14.90
2023-03-28T17:49:32.496Z,14.80
2023-03-28T17:52:00.219Z,14.80
2023-03-28T17:54:30.015Z,14.70
2023-03-28T17:56:59.250Z,14.60
2023-03-28T17:59:27.271Z,14.60
2023-03-28T18:01:55.149Z,14.50
2023-03-28T18:04:23.507Z,14.30
2023-03-28T18:07:16.596Z,14.20
2023-03-28T18:09:46.118Z,14.10
2023-03-28T18:12:13.370Z,14.10
2023-03-28T18:14:43.753Z,14.00
2023-03-28T18:17:12.742Z,14.00
2023-03-28T18:19:41.932Z,13.90
2023-03-28T18:22:09.127Z,13.80
2023-03-28T18:24:36.146Z,13.70
2023-03-28T18:27:03.429Z,13.60
2023-03-28T18:29:31.168Z,13.60
2023-03-28T18:31:59.759Z,13.60
2023-03-28T18:34:27.702Z,13.50
2023-03-28T18:36:55.692Z,13.30
2023-03-28T18:39:23.816Z,13.30
2023-03-28T18:41:51.581Z,13.10
2023-03-28T18:44:19.394Z,13.10
2023-03-28T18:46:54.645Z,13.00
2023-03-28T18:49:23.044Z,13.00
2023-03-28T18:51:50.095Z,12.90
2023-03-28T18:54:17.386Z,12.80
2023-03-28T18:56:44.777Z,12.80
2023-03-28T18:59:12.340Z,12.70
2023-03-28T19:01:42.337Z,12.70
2023-03-28T19:04:11.872Z,12.60
2023-03-28T19:06:39.741Z,12.50
2023-03-28T19:09:09.513Z,12.50
2023-03-28T19:11:36.659Z,12.50
2023-03-28T19:14:09.818Z,12.50
2023-03-28T19:16:38.062Z,12.50
2023-03-28T19:19:05.472Z,12.30
2023-03-28T19:21:33.778Z,12.30
2023-03-28T19:24:01.557Z,12.30
2023-03-28T19:26:28.978Z,12.30
2023-03-28T19:28:56.017Z,12.20
2023-03-28T19:31:30.423Z,12.10
2023-03-28T19:33:58.797Z,12.10
2023-03-28T19:36:26.143Z,12.10
2023-03-28T19:39:02.627Z,12.10
2023-03-28T19:41:30.945Z,12.10
2023-03-28T19:43:58.061Z,12.00
2023-03-28T19:46:33.220Z,12.00
2023-03-28T19:49:05.837Z,12.00
2023-03-28T19:51:35.330Z,12.00
2023-03-28T19:54:02.676Z,12.00
2023-03-28T19:56:30.137Z,11.90
2023-03-28T19:58:57.285Z,11.80
2023-03-28T20:01:24.518Z,11.90
2023-03-28T20:03:54.210Z,11.90
2023-03-28T20:06:25.970Z,11.90
2023-03-28T20:08:53.119Z,11.70
2023-03-28T20:11:20.605Z,11.70
2023-03-28T20:13:47.780Z,11.60
2023-03-28T20:16:15.256Z,11.60
2023-03-28T20:18:42.446Z,11.60
2023-03-28T20:21:12.039Z,11.50
2023-03-28T20:23:43.082Z,11.50
2023-03-28T20:26:21.772Z,11.40
2023-03-28T20:28:53.066Z,11.50
2023-03-28T20:31:20.306Z,11.40
2023-03-28T20:33:47.408Z,11.30
2023-03-28T20:36:14.478Z,11.30
2023-03-28T20:38:41.602Z,11.20
2023-03-28T20:41:17.717Z,11.20
2023-03-28T20:43:47.101Z,11.20
2023-03-28T20:46:19.944Z,11.20
2023-03-28T20:48:54.431Z,11.30
2023-03-28T20:51:23.188Z,11.30
2023-03-28T20:53:55.916Z,11.20
2023-03-28T20:56:23.896Z,11.20
2023-03-28T20:58:53.480Z,11.10
2023-03-28T21:01:25.592Z,11.10
2023-03-28T21:03:57.996Z,11.10
2023-03-28T21:06:45.534Z,11.10
2023-03-28T21:09:18.273Z,11.00
2023-03-28T21:11:45.772Z,11.00
2023-03-28T21:14:14.441Z,11.00
2023-03-28T21:16:41.991Z,10.90
2023-03-28T21:19:09.710Z,10.90
2023-03-28T21:21:36.860Z,10.90
2023-03-28T21:24:05.076Z,10.80
2023-03-28T21:26:32.710Z,10.80
2023-03-28T21:29:00.265Z,10.80
2023-03-28T21:31:29.357Z,10.80
2023-03-28T21:34:02.170Z,10.80
2023-03-28T21:36:29.631Z,10.70
2023-03-28T21:38:57.199Z,10.70
2023-03-28T21:41:24.667Z,10.70
2023-03-28T21:43:53.793Z,10.70
2023-03-28T21:46:25.142Z,10.70
2023-03-28T21:48:52.735Z,10.70
2023-03-28T21:51:19.847Z,10.70
2023-03-28T21:53:47.141Z,10.60
2023-03-28T21:56:16.316Z,10.60
2023-03-28T21:58:43.626Z,10.60
2023-03-28T22:01:13.758Z,10.60
2023-03-28T22:03:41.123Z,10.60
2023-03-28T22:06:08.793Z,10.60
2023-03-28T22:08:37.135Z,10.60
2023-03-28T22:11:13.584Z,10.60
2023-03-28T22:13:42.732Z,10.60
2023-03-28T22:16:10.048Z,10.60
2023-03-28T22:18:37.381Z,10.50
2023-03-28T22:21:09.055Z,10.50
2023-03-28T22:23:36.183Z,10.50
2023-03-28T22:26:03.750Z,10.50
2023-03-28T22:28:31.232Z,10.50
2023-03-28T22:30:58.409Z,10.50
2023-03-28T22:33:25.808Z,10.40
2023-03-28T22:35:53.439Z,10.40
2023-03-28T22:38:20.893Z,10.40
2023-03-28T22:40:50.362Z,10.40
2023-03-28T22:43:17.620Z,10.40
2023-03-28T22:45:45.139Z,10.30
2023-03-28T22:48:15.061Z,10.20
2023-03-28T22:50:46.426Z,10.10
2023-03-28T22:53:14.677Z,10.10
2023-03-28T22:55:45.478Z,10.10
2023-03-28T22:58:13.029Z,10.20
2023-03-28T23:00:40.205Z,10.20
2023-03-28T23:03:08.213Z,10.10
2023-03-28T23:05:35.868Z,10.10
2023-03-28T23:08:04.054Z,10.20
2023-03-28T23:10:32.070Z,10.20
2023-03-28T23:12:59.851Z,10.30
2023-03-28T23:15:29.515Z,10.30
2023-03-28T23:17:58.182Z,10.20
2023-03-28T23:20:26.765Z,10.30
2023-03-28T23:22:53.886Z,10.20
2023-03-28T23:25:22.308Z,10.20
2023-03-28T23:27:49.502Z,10.20
2023-03-28T23:30:16.884Z,10.20
2023-03-28T23:32:44.070Z,10.10
2023-03-28T23:35:11.870Z,10.10
2023-03-28T23:37:41.390Z,10.00
2023-03-28T23:40:14.832Z,10.00
2023-03-28T23:42:45.063Z,9.90
2023-03-28T23:45:14.111Z,9.90
2023-03-28T23:47:41.779Z,9.90
2023-03-28T23:50:09.487Z,9.90
2023-03-28T23:52:36.859Z,10.00
2023-03-28T23:55:04.251Z,10.00
2023-03-28T23:57:32.694Z,9.90
